Time;durP1;ratioP1;P1;durP2;ratioP2;P2;SDS_P1;SDS_P2;PMS_P1;PMS_P2;Temp;Humidity;BMP_temperature;BMP_pressure;BME280_temperature;BME280_humidity;BME280_pressure;Samples;Min_cycle;Max_cycle;Signal;HPM_P1;HPM_P2
2023/10/21 00:01:14;;;;;;;3.70;1.90;;;16.00;99.90;;;;;;4983094;28;20465;-74
2023/10/21 00:03:43;;;;;;;2.70;2.50;;;16.00;99.90;;;;;;4983442;28;20486;-74
2023/10/21 00:06:11;;;;;;;2.23;2.03;;;16.00;99.90;;;;;;4958774;28;20216;-74
2023/10/21 00:08:39;;;;;;;2.20;2.00;;;16.00;99.90;;;;;;4974483;28;20464;-74
2023/10/21 00:11:09;;;;;;;1.90;1.80;;;16.00;99.90;;;;;;4959125;28;20505;-74
2023/10/21 00:13:36;;;;;;;2.13;1.97;;;16.00;99.90;;;;;;4967435;28;21045;-73
2023/10/21 00:16:03;;;;;;;1.80;1.70;;;16.00;99.90;;;;;;4961177;28;20857;-73
2023/10/21 00:18:30;;;;;;;2.30;2.10;;;16.00;99.90;;;;;;4961853;28;20445;-73
2023/10/21 00:20:56;;;;;;;2.60;2.40;;;16.00;99.90;;;;;;4954399;28;20454;-73
2023/10/21 00:23:22;;;;;;;2.60;2.33;;;16.00;99.90;;;;;;4966784;28;20450;-74
2023/10/21 00:25:51;;;;;;;2.30;2.10;;;16.00;99.90;;;;;;4959386;28;20453;-74
2023/10/21 00:28:19;;;;;;;2.80;1.67;;;16.00;99.90;;;;;;4959362;28;20474;-74
2023/10/21 00:30:47;;;;;;;3.33;1.97;;;16.00;99.90;;;;;;4972386;28;20473;-73
2023/10/21 00:33:15;;;;;;;4.33;1.90;;;16.00;99.90;;;;;;4967046;28;20459;-74
2023/10/21 00:35:46;;;;;;;2.90;2.43;;;16.00;99.90;;;;;;4970110;28;20960;-74
2023/10/21 00:38:13;;;;;;;1.73;1.63;;;16.00;99.90;;;;;;4976136;28;20419;-74
2023/10/21 00:40:52;;;;;;;2.50;2.10;;;16.00;99.90;;;;;;4968224;28;20849;-74
2023/10/21 00:43:34;;;;;;;2.37;2.17;;;16.00;99.90;;;;;;4959212;28;20454;-74
2023/10/21 00:46:17;;;;;;;2.10;2.00;;;16.00;99.90;;;;;;4940141;28;20951;-74
2023/10/21 00:48:48;;;;;;;1.97;1.70;;;15.90;99.90;;;;;;4964007;28;20471;-74
2023/10/21 00:51:15;;;;;;;2.57;1.83;;;15.90;99.90;;;;;;4950769;28;20501;-74
2023/10/21 00:53:42;;;;;;;2.47;2.20;;;15.90;99.90;;;;;;4963223;28;20432;-74
2023/10/21 00:56:09;;;;;;;4.77;1.73;;;16.00;99.90;;;;;;4960953;28;20454;-74
2023/10/21 00:58:37;;;;;;;2.87;1.90;;;15.90;99.90;;;;;;4970169;28;20456;-74
2023/10/21 01:01:08;;;;;;;2.30;1.87;;;15.90;99.90;;;;;;4954854;28;20432;-74
2023/10/21 01:03:40;;;;;;;1.97;1.87;;;15.90;99.90;;;;;;4967673;28;20458;-74
2023/10/21 01:06:07;;;;;;;2.03;1.60;;;15.90;99.90;;;;;;4958321;28;21213;-73
2023/10/21 01:08:48;;;;;;;2.60;2.40;;;15.90;99.90;;;;;;4974150;28;20502;-74
2023/10/21 01:11:14;;;;;;;1.80;1.70;;;15.90;99.90;;;;;;4959740;28;20923;-73
2023/10/21 01:13:43;;;;;;;3.17;1.83;;;15.90;99.90;;;;;;4958222;28;20446;-74
2023/10/21 01:16:13;;;;;;;2.43;1.60;;;15.90;99.90;;;;;;4957472;28;20461;-74
2023/10/21 01:18:42;;;;;;;1.93;1.60;;;15.90;99.90;;;;;;4977829;28;20468;-74
2023/10/21 01:21:11;;;;;;;4.80;2.20;;;15.90;99.90;;;;;;4946492;28;20450;-74
2023/10/21 01:23:37;;;;;;;2.20;2.00;;;15.90;99.90;;;;;;4963175;28;20508;-74
2023/10/21 01:26:07;;;;;;;2.00;1.90;;;15.90;99.90;;;;;;4958999;28;20660;-74
2023/10/21 01:28:33;;;;;;;2.10;1.90;;;15.90;99.90;;;;;;4975226;28;21199;-73
2023/10/21 01:31:00;;;;;;;2.00;1.90;;;15.90;99.90;;;;;;4963631;28;20441;-74
2023/10/21 01:33:28;;;;;;;2.10;2.00;;;15.90;99.90;;;;;;4944406;28;20440;-74
2023/10/21 01:35:54;;;;;;;1.87;1.70;;;15.90;99.90;;;;;;4975331;28;20467;-74
2023/10/21 01:38:20;;;;;;;3.13;1.57;;;15.90;99.90;;;;;;4982990;28;20506;-74
2023/10/21 01:40:49;;;;;;;1.83;1.73;;;15.90;99.90;;;;;;4958289;28;20443;-74
2023/10/21 01:43:17;;;;;;;1.67;1.57;;;15.90;99.90;;;;;;4958115;28;20449;-74
2023/10/21 01:45:43;;;;;;;2.00;1.90;;;15.90;99.90;;;;;;4959144;28;20462;-74
2023/10/21 01:48:11;;;;;;;2.07;1.80;;;15.90;99.90;;;;;;4970569;28;20445;-73
2023/10/21 01:50:40;;;;;;;1.97;1.87;;;15.90;99.90;;;;;;4944028;28;20196;-74
2023/10/21 01:53:06;;;;;;;1.70;1.60;;;15.90;99.90;;;;;;4962755;28;20548;-74
2023/10/21 01:55:35;;;;;;;1.63;1.53;;;15.90;99.90;;;;;;4961838;28;20442;-74
2023/10/21 01:58:06;;;;;;;2.17;1.90;;;15.90;99.90;;;;;;4956514;28;20451;-74
2023/10/21 02:00:33;;;;;;;1.70;1.60;;;15.90;99.90;;;;;;4977896;28;20422;-74
2023/10/21 02:02:59;;;;;;;2.37;1.97;;;15.90;99.90;;;;;;4977607;28;20431;-74
2023/10/21 02:05:26;;;;;;;1.90;1.80;;;15.90;99.90;;;;;;4958985;28;20474;-74
2023/10/21 02:07:52;;;;;;;2.20;2.10;;;15.90;99.90;;;;;;4961297;28;21387;-74
2023/10/21 02:10:21;;;;;;;1.97;1.87;;;15.90;99.90;;;;;;4974171;28;21122;-74
2023/10/21 02:12:47;;;;;;;2.03;1.93;;;15.90;99.90;;;;;;4961224;28;20541;-74
2023/10/21 02:15:18;;;;;;;2.00;1.80;;;15.90;99.90;;;;;;4961487;28;20559;-74
2023/10/21 02:17:45;;;;;;;1.97;1.87;;;15.90;99.90;;;;;;4945333;28;20421;-74
2023/10/21 02:20:14;;;;;;;2.80;1.80;;;15.90;99.90;;;;;;4976141;28;20551;-74
2023/10/21 02:22:41;;;;;;;1.90;1.80;;;15.90;99.90;;;;;;4975844;28;20432;-74
2023/10/21 02:25:11;;;;;;;2.03;1.80;;;15.90;99.90;;;;;;4944808;28;21236;-73
2023/10/21 02:27:39;;;;;;;2.30;2.20;;;15.90;99.90;;;;;;4960734;28;20509;-73
2023/10/21 02:30:10;;;;;;;1.93;1.83;;;15.90;99.90;;;;;;4944440;28;20542;-74
2023/10/21 02:32:37;;;;;;;1.80;1.70;;;15.90;99.90;;;;;;4976939;28;20518;-73
2023/10/21 02:35:06;;;;;;;2.53;2.43;;;15.80;99.90;;;;;;4961166;28;20506;-74
2023/10/21 02:37:32;;;;;;;2.30;1.70;;;15.80;99.90;;;;;;4959114;28;20449;-74
2023/10/21 02:40:01;;;;;;;2.10;1.83;;;15.80;99.90;;;;;;4962714;28;20468;-73
2023/10/21 02:42:27;;;;;;;2.50;2.20;;;15.80;99.90;;;;;;4942791;28;20434;-73
2023/10/21 02:44:53;;;;;;;2.23;2.13;;;15.80;99.90;;;;;;4957115;28;20462;-73
2023/10/21 02:47:21;;;;;;;2.10;1.90;;;15.90;99.90;;;;;;4958824;28;21293;-74
2023/10/21 02:49:52;;;;;;;2.10;2.00;;;15.80;99.90;;;;;;4960527;28;20562;-74
2023/10/21 02:52:21;;;;;;;2.03;1.87;;;15.80;99.90;;;;;;4973550;28;20845;-74
2023/10/21 02:54:47;;;;;;;2.00;1.90;;;15.80;99.90;;;;;;4938160;29;20462;-74
2023/10/21 02:57:13;;;;;;;2.23;2.00;;;15.80;99.90;;;;;;4956739;28;20810;-74
2023/10/21 02:59:41;;;;;;;3.80;2.13;;;15.80;99.90;;;;;;4943961;28;21007;-74
2023/10/21 03:02:08;;;;;;;2.17;2.00;;;15.90;99.90;;;;;;4976654;28;20447;-74
2023/10/21 03:04:36;;;;;;;2.17;2.03;;;15.80;99.90;;;;;;4976635;28;20907;-74
2023/10/21 03:07:03;;;;;;;2.40;1.90;;;15.80;99.90;;;;;;4974774;28;20819;-73
2023/10/21 03:09:29;;;;;;;2.43;2.23;;;15.80;99.90;;;;;;4959885;28;20474;-74
2023/10/21 03:11:58;;;;;;;2.17;2.07;;;15.80;99.90;;;;;;4976429;28;20490;-74
2023/10/21 03:14:24;;;;;;;2.23;2.00;;;15.80;99.90;;;;;;4960837;28;20875;-74
2023/10/21 03:16:52;;;;;;;2.33;2.13;;;15.80;99.90;;;;;;4960756;28;20444;-74
2023/10/21 03:19:18;;;;;;;1.93;1.83;;;15.80;99.90;;;;;;4976349;28;20466;-74
2023/10/21 03:21:45;;;;;;;1.97;1.87;;;15.80;99.90;;;;;;4976386;28;21018;-74
2023/10/21 03:24:13;;;;;;;2.30;2.20;;;15.80;99.90;;;;;;4955212;28;20440;-74
2023/10/21 03:26:41;;;;;;;1.80;1.70;;;15.80;99.90;;;;;;4959695;28;21092;-74
2023/10/21 03:29:08;;;;;;;2.40;2.30;;;15.80;99.90;;;;;;4944652;28;20880;-73
2023/10/21 03:31:36;;;;;;;2.23;2.03;;;15.80;99.90;;;;;;4960615;28;20458;-74
2023/10/21 03:34:03;;;;;;;2.20;2.00;;;15.80;99.90;;;;;;4941522;29;20455;-74
2023/10/21 03:36:32;;;;;;;2.23;2.13;;;15.80;99.90;;;;;;4972677;28;20444;-74
2023/10/21 03:39:00;;;;;;;2.10;1.80;;;15.80;99.90;;;;;;4959350;28;20532;-74
2023/10/21 03:41:26;;;;;;;5.63;2.23;;;15.80;99.90;;;;;;4941744;28;20497;-74
2023/10/21 03:43:52;;;;;;;2.07;1.97;;;15.80;99.90;;;;;;4944006;28;20472;-74
2023/10/21 03:46:20;;;;;;;2.03;1.90;;;15.80;99.90;;;;;;4941025;28;20479;-74
2023/10/21 03:48:46;;;;;;;1.97;1.70;;;15.80;99.90;;;;;;4935845;28;20481;-74
2023/10/21 03:51:14;;;;;;;2.73;2.30;;;15.80;99.90;;;;;;4959694;28;20953;-74
2023/10/21 03:53:41;;;;;;;2.00;1.90;;;15.80;99.90;;;;;;4959574;28;21182;-74
2023/10/21 03:56:10;;;;;;;2.47;1.80;;;15.80;99.90;;;;;;4959723;28;20443;-73
2023/10/21 03:58:39;;;;;;;2.13;1.93;;;15.80;99.90;;;;;;4961113;28;20476;-74
2023/10/21 04:01:06;;;;;;;2.03;1.93;;;15.80;99.90;;;;;;4959880;28;20447;-74
2023/10/21 04:03:32;;;;;;;2.30;2.13;;;15.80;99.90;;;;;;4960660;28;20532;-74
2023/10/21 04:05:58;;;;;;;2.40;2.20;;;15.80;99.90;;;;;;4940408;28;20500;-74
2023/10/21 04:08:26;;;;;;;2.30;2.20;;;15.80;99.90;;;;;;4950325;28;20481;-74
2023/10/21 04:10:55;;;;;;;2.47;2.27;;;15.80;99.90;;;;;;4975460;28;21019;-74
2023/10/21 04:13:23;;;;;;;2.67;2.47;;;15.80;99.90;;;;;;4960432;28;20426;-74
2023/10/21 04:15:49;;;;;;;2.30;2.10;;;15.80;99.90;;;;;;4958949;28;21154;-74
2023/10/21 04:18:20;;;;;;;2.53;2.20;;;15.80;99.90;;;;;;4974293;28;20447;-74
2023/10/21 04:20:46;;;;;;;2.13;2.00;;;15.80;99.90;;;;;;4959291;28;20426;-74
2023/10/21 04:23:15;;;;;;;1.90;1.80;;;15.80;99.90;;;;;;4959520;28;20497;-74
2023/10/21 04:25:44;;;;;;;2.33;2.13;;;15.80;99.90;;;;;;4960494;28;20205;-74
2023/10/21 04:28:11;;;;;;;2.43;2.10;;;15.80;99.90;;;;;;4960484;28;20418;-74
2023/10/21 04:30:39;;;;;;;2.33;2.17;;;15.80;99.90;;;;;;4959754;28;21109;-74
2023/10/21 04:33:07;;;;;;;2.37;2.17;;;15.80;99.90;;;;;;4975076;28;20427;-74
2023/10/21 04:35:33;;;;;;;2.30;2.10;;;15.80;99.90;;;;;;4960028;28;20428;-74
2023/10/21 04:37:59;;;;;;;2.27;2.10;;;15.80;99.90;;;;;;4960575;28;20513;-73
2023/10/21 04:40:27;;;;;;;2.20;2.00;;;15.80;99.90;;;;;;4956401;28;21336;-74
2023/10/21 04:42:53;;;;;;;2.57;2.13;;;15.80;99.90;;;;;;4958705;28;20431;-74
2023/10/21 04:45:19;;;;;;;2.33;2.13;;;15.80;99.90;;;;;;4954415;28;20460;-74
2023/10/21 04:47:48;;;;;;;2.00;1.90;;;15.80;99.90;;;;;;4978107;28;20437;-73
2023/10/21 04:50:16;;;;;;;2.17;2.07;;;15.80;99.90;;;;;;4962140;28;20560;-74
2023/10/21 04:52:43;;;;;;;2.27;2.17;;;15.80;99.90;;;;;;4962185;28;20429;-74
2023/10/21 04:55:09;;;;;;;2.47;2.10;;;15.80;99.90;;;;;;4962433;28;20439;-74
2023/10/21 04:57:35;;;;;;;2.27;2.10;;;15.80;99.90;;;;;;4977616;28;20452;-74
2023/10/21 05:00:03;;;;;;;2.50;2.30;;;15.80;99.90;;;;;;4958792;28;20539;-74
2023/10/21 05:02:29;;;;;;;2.40;2.20;;;15.70;99.90;;;;;;4959313;28;21015;-74
2023/10/21 05:04:58;;;;;;;3.73;2.10;;;15.80;99.90;;;;;;4979104;28;20425;-74
2023/10/21 05:07:31;;;;;;;2.23;2.13;;;15.80;99.90;;;;;;4945153;28;20468;-74
2023/10/21 05:09:58;;;;;;;2.17;2.07;;;15.80;99.90;;;;;;4974873;28;20526;-74
2023/10/21 05:12:24;;;;;;;2.60;2.40;;;15.80;99.90;;;;;;4976085;28;20423;-74
2023/10/21 05:14:51;;;;;;;2.60;2.40;;;15.80;99.90;;;;;;4971934;28;20446;-74
2023/10/21 05:17:17;;;;;;;2.43;2.23;;;15.80;99.90;;;;;;4971411;28;20431;-74
2023/10/21 05:19:43;;;;;;;2.30;2.20;;;15.80;99.90;;;;;;4978832;28;20443;-74
2023/10/21 05:22:09;;;;;;;3.60;2.80;;;15.80;99.90;;;;;;4979190;28;20460;-73
2023/10/21 05:24:36;;;;;;;2.13;1.90;;;15.80;99.90;;;;;;5048233;23;20593;-71
2023/10/21 05:27:09;;;;;;;2.30;2.20;;;15.80;99.90;;;;;;4964272;28;20208;-71
2023/10/21 05:29:35;;;;;;;2.00;1.90;;;15.80;99.90;;;;;;4963979;28;20499;-70
2023/10/21 05:32:02;;;;;;;2.50;2.30;;;15.80;99.90;;;;;;4962735;28;20549;-71
2023/10/21 05:34:30;;;;;;;2.50;2.30;;;15.80;99.90;;;;;;4947048;28;20437;-70
2023/10/21 05:36:57;;;;;;;3.20;2.37;;;15.80;99.90;;;;;;4980424;28;20426;-71
2023/10/21 05:39:23;;;;;;;2.13;2.03;;;15.80;99.90;;;;;;4963071;28;20550;-71
2023/10/21 05:41:52;;;;;;;2.80;2.37;;;15.70;99.90;;;;;;4970869;28;20455;-71
2023/10/21 05:44:18;;;;;;;4.50;2.23;;;15.80;99.90;;;;;;4963210;28;20517;-70
2023/10/21 05:46:44;;;;;;;2.23;2.13;;;15.80;99.90;;;;;;4962630;28;20481;-71
2023/10/21 05:49:18;;;;;;;2.90;2.70;;;15.80;99.90;;;;;;4962539;28;21311;-71
2023/10/21 05:51:48;;;;;;;2.93;2.70;;;15.70;99.90;;;;;;4979741;28;20440;-70
2023/10/21 05:54:15;;;;;;;2.97;2.70;;;15.70;99.90;;;;;;4987198;23;20466;-71
2023/10/21 05:56:47;;;;;;;2.30;2.20;;;15.70;99.90;;;;;;4953168;28;20992;-70
2023/10/21 05:59:17;;;;;;;2.70;2.27;;;15.80;99.90;;;;;;4994220;28;20457;-71
2023/10/21 06:01:43;;;;;;;2.57;2.37;;;15.80;99.90;;;;;;4967033;28;20434;-71
2023/10/21 06:04:11;;;;;;;2.67;2.47;;;15.70;99.90;;;;;;4985292;28;21015;-70
2023/10/21 06:06:38;;;;;;;2.80;2.57;;;15.70;99.90;;;;;;4981060;28;20429;-71
2023/10/21 06:09:09;;;;;;;2.70;2.50;;;15.80;99.90;;;;;;4996012;28;20489;-71
2023/10/21 06:11:36;;;;;;;2.90;2.40;;;15.70;99.90;;;;;;4982954;28;20491;-71
2023/10/21 06:14:02;;;;;;;2.83;2.63;;;15.80;99.90;;;;;;4974476;28;20455;-70
2023/10/21 06:16:32;;;;;;;5.07;2.80;;;15.70;99.90;;;;;;5001372;28;20547;-71
2023/10/21 06:18:58;;;;;;;2.33;2.13;;;15.70;99.90;;;;;;5002822;28;20457;-71
2023/10/21 06:21:24;;;;;;;2.40;2.27;;;15.70;99.90;;;;;;4995458;28;20435;-71
2023/10/21 06:23:53;;;;;;;2.33;2.13;;;15.70;99.90;;;;;;4992178;28;20519;-70
2023/10/21 06:26:23;;;;;;;2.73;2.53;;;15.70;99.90;;;;;;4983853;28;21122;-71
2023/10/21 06:28:55;;;;;;;2.80;1.93;;;15.70;99.90;;;;;;4982123;28;20578;-70
2023/10/21 06:31:21;;;;;;;2.70;2.50;;;15.70;99.90;;;;;;4983973;28;20425;-71
2023/10/21 06:33:49;;;;;;;2.93;2.70;;;15.80;99.90;;;;;;4996273;28;20810;-71
2023/10/21 06:36:16;;;;;;;2.30;2.20;;;15.70;99.90;;;;;;4993344;28;20207;-73
2023/10/21 06:38:49;;;;;;;3.20;2.70;;;15.70;99.90;;;;;;4962889;28;20839;-72
2023/10/21 06:41:17;;;;;;;2.37;2.27;;;15.70;99.90;;;;;;4970726;28;20477;-72
2023/10/21 06:43:43;;;;;;;2.30;2.20;;;15.70;99.90;;;;;;4974463;28;20477;-71
2023/10/21 06:46:10;;;;;;;2.40;2.20;;;15.70;99.90;;;;;;4993325;28;20480;-71
2023/10/21 06:48:39;;;;;;;1.90;1.80;;;15.70;99.90;;;;;;4969902;28;20497;-72
2023/10/21 06:51:10;;;;;;;2.30;2.10;;;15.70;99.90;;;;;;4969608;28;20460;-71
2023/10/21 06:53:36;;;;;;;3.70;2.47;;;15.80;99.90;;;;;;4969403;28;20532;-72
2023/10/21 06:56:02;;;;;;;2.77;2.27;;;15.70;99.90;;;;;;4977352;28;20815;-71
2023/10/21 06:58:28;;;;;;;5.27;2.30;;;15.70;99.90;;;;;;4966238;28;20482;-69
2023/10/21 07:00:55;;;;;;;2.60;2.47;;;15.80;99.90;;;;;;4973579;28;20440;-71
2023/10/21 07:03:23;;;;;;;2.70;2.50;;;15.70;99.90;;;;;;4980677;28;20462;-70
2023/10/21 07:05:49;;;;;;;2.93;2.73;;;15.70;99.90;;;;;;4981024;28;20526;-72
2023/10/21 07:08:18;;;;;;;3.30;2.50;;;15.70;99.90;;;;;;4968629;28;20427;-72
2023/10/21 07:10:46;;;;;;;2.20;2.10;;;15.70;99.90;;;;;;4983806;28;20827;-70
2023/10/21 07:13:12;;;;;;;5.10;2.70;;;15.70;99.90;;;;;;4993660;28;20426;-72
2023/10/21 07:15:45;;;;;;;3.63;2.73;;;15.70;99.90;;;;;;4966252;28;20433;-72
2023/10/21 07:18:14;;;;;;;2.40;2.20;;;15.70;99.90;;;;;;4979537;28;20437;-72
2023/10/21 07:20:42;;;;;;;2.87;2.50;;;15.70;99.90;;;;;;4980526;28;20508;-73
2023/10/21 07:23:12;;;;;;;3.50;2.50;;;15.70;99.90;;;;;;4980165;28;20449;-71
2023/10/21 07:25:39;;;;;;;3.20;2.53;;;15.70;99.90;;;;;;4978958;28;20440;-70
2023/10/21 07:28:05;;;;;;;2.40;2.20;;;15.70;99.90;;;;;;4976090;28;20441;-73
2023/10/21 07:30:33;;;;;;;2.70;2.50;;;15.70;99.90;;;;;;4977725;28;20504;-71
2023/10/21 07:33:02;;;;;;;3.10;2.70;;;15.70;99.90;;;;;;4980866;28;20495;-71
2023/10/21 07:35:28;;;;;;;2.70;2.40;;;15.70;99.90;;;;;;4978663;28;20435;-76
2023/10/21 07:37:54;;;;;;;4.77;3.10;;;15.70;99.90;;;;;;4960524;28;21247;-72
2023/10/21 07:40:21;;;;;;;2.50;2.40;;;15.70;99.90;;;;;;4971634;28;21042;-70
2023/10/21 07:42:47;;;;;;;3.77;2.60;;;15.70;99.90;;;;;;4976437;28;20454;-72
2023/10/21 07:45:15;;;;;;;2.10;1.93;;;15.70;99.90;;;;;;4976811;28;20432;-72
2023/10/21 07:47:42;;;;;;;2.57;2.37;;;15.70;99.90;;;;;;4974585;28;20436;-72
2023/10/21 07:50:08;;;;;;;2.53;2.33;;;15.80;99.90;;;;;;4973071;28;20478;-72
2023/10/21 07:52:37;;;;;;;3.63;2.20;;;15.70;99.90;;;;;;4977119;28;20877;-72
2023/10/21 07:55:03;;;;;;;3.00;2.37;;;15.70;99.90;;;;;;4978732;28;20606;-69
2023/10/21 07:57:33;;;;;;;2.63;2.23;;;15.70;99.90;;;;;;4963435;28;20423;-71
2023/10/21 08:00:00;;;;;;;2.37;2.20;;;15.80;99.90;;;;;;4963662;28;21187;-72
2023/10/21 08:02:29;;;;;;;2.53;1.97;;;15.80;99.90;;;;;;4964149;28;20535;-72
2023/10/21 08:04:55;;;;;;;2.40;2.20;;;15.80;99.90;;;;;;4963688;28;20463;-72
2023/10/21 08:07:21;;;;;;;2.50;1.90;;;15.80;99.90;;;;;;4947177;28;20441;-72
2023/10/21 08:09:51;;;;;;;2.17;2.07;;;15.80;99.90;;;;;;4954529;28;20490;-72
2023/10/21 08:12:20;;;;;;;2.70;2.07;;;15.80;99.90;;;;;;4962714;28;20524;-71
2023/10/21 08:14:46;;;;;;;2.00;1.90;;;15.70;99.90;;;;;;4972540;28;20784;-72
2023/10/21 08:17:14;;;;;;;2.20;2.10;;;15.70;99.90;;;;;;4952046;28;20475;-72
2023/10/21 08:19:42;;;;;;;2.40;2.20;;;15.70;99.90;;;;;;4964725;28;20540;-72
2023/10/21 08:22:08;;;;;;;2.60;2.40;;;15.80;99.90;;;;;;4979838;28;20453;-73
2023/10/21 08:24:34;;;;;;;2.03;1.90;;;15.80;99.90;;;;;;4981628;28;20454;-72
2023/10/21 08:27:04;;;;;;;2.40;2.07;;;15.80;99.90;;;;;;4979955;28;20493;-72
2023/10/21 08:29:33;;;;;;;3.83;2.30;;;15.80;99.90;;;;;;4963951;28;21258;-72
2023/10/21 08:32:00;;;;;;;2.03;1.93;;;15.80;99.90;;;;;;4947565;28;20441;-72
2023/10/21 08:34:26;;;;;;;2.10;2.00;;;15.80;99.90;;;;;;4962948;28;20515;-72
2023/10/21 08:36:52;;;;;;;2.00;1.90;;;15.80;99.90;;;;;;4930123;28;20819;-72
2023/10/21 08:39:20;;;;;;;2.50;2.30;;;15.80;99.90;;;;;;4955726;28;20587;-72
2023/10/21 08:41:49;;;;;;;5.30;2.00;;;15.80;99.90;;;;;;4956085;28;20485;-72
2023/10/21 08:44:18;;;;;;;2.20;2.10;;;15.80;99.90;;;;;;4947780;28;20457;-72
2023/10/21 08:46:45;;;;;;;2.20;2.00;;;15.80;99.90;;;;;;4970277;28;20432;-73
2023/10/21 08:49:13;;;;;;;2.13;2.03;;;15.80;99.90;;;;;;4968151;28;20524;-73
2023/10/21 08:51:44;;;;;;;2.33;1.80;;;15.80;99.90;;;;;;4947064;28;20496;-73
2023/10/21 08:54:12;;;;;;;1.93;1.83;;;15.80;99.90;;;;;;4964865;28;20436;-72
2023/10/21 08:56:39;;;;;;;2.10;2.00;;;15.80;99.90;;;;;;5000565;28;20422;-72
2023/10/21 08:59:05;;;;;;;1.83;1.73;;;15.90;99.90;;;;;;4982748;28;20528;-72
2023/10/21 09:01:31;;;;;;;1.70;1.60;;;15.80;99.90;;;;;;4965114;28;20808;-72
2023/10/21 09:03:57;;;;;;;1.90;1.80;;;15.80;99.90;;;;;;4969743;28;20437;-72
2023/10/21 09:06:24;;;;;;;1.90;1.80;;;15.90;99.90;;;;;;4963778;28;20452;-72
2023/10/21 09:08:51;;;;;;;2.40;2.20;;;15.90;99.90;;;;;;4963485;28;20488;-73
2023/10/21 09:11:24;;;;;;;1.80;1.70;;;15.90;99.90;;;;;;4954980;28;20466;-73
2023/10/21 09:13:52;;;;;;;1.90;1.80;;;15.90;99.90;;;;;;4996240;28;20465;-73
2023/10/21 09:16:23;;;;;;;7.23;1.97;;;15.90;99.90;;;;;;4980574;28;20431;-72
2023/10/21 09:19:06;;;;;;;2.00;1.90;;;15.90;99.90;;;;;;4974677;28;20521;-72
2023/10/21 09:21:38;;;;;;;1.83;1.73;;;15.90;99.90;;;;;;4973088;28;20426;-73
2023/10/21 09:24:19;;;;;;;1.90;1.80;;;15.90;99.90;;;;;;4958234;28;20436;-72
2023/10/21 09:26:48;;;;;;;1.70;1.60;;;15.90;99.90;;;;;;5001120;28;20458;-73
2023/10/21 09:29:20;;;;;;;2.33;1.63;;;15.90;99.90;;;;;;5000511;28;20496;-72
2023/10/21 09:31:53;;;;;;;1.83;1.73;;;16.00;99.90;;;;;;4966193;28;20607;-73
2023/10/21 09:34:31;;;;;;;4.07;2.00;;;15.90;99.90;;;;;;4966141;28;20466;-72
2023/10/21 09:37:04;;;;;;;1.70;1.60;;;16.00;99.90;;;;;;4964925;28;20466;-72
2023/10/21 09:39:38;;;;;;;1.90;1.80;;;16.00;99.90;;;;;;4984183;28;20446;-72
2023/10/21 09:42:05;;;;;;;1.67;1.57;;;16.00;99.90;;;;;;4998699;28;20964;-72
2023/10/21 09:44:36;;;;;;;2.13;2.00;;;16.00;99.90;;;;;;4977277;28;20499;-73
2023/10/21 09:47:08;;;;;;;1.60;1.50;;;16.00;99.90;;;;;;4966558;28;20996;-72
2023/10/21 09:49:40;;;;;;;2.47;1.80;;;16.00;99.90;;;;;;4986431;28;20472;-73
2023/10/21 09:52:17;;;;;;;1.90;1.80;;;16.00;99.90;;;;;;4977948;28;20482;-72
2023/10/21 09:55:07;;;;;;;1.90;1.80;;;16.00;99.90;;;;;;4966088;28;20514;-72
2023/10/21 09:57:40;;;;;;;1.90;1.80;;;16.00;99.90;;;;;;4974200;28;21357;-73
2023/10/21 10:00:10;;;;;;;2.27;1.80;;;16.00;99.90;;;;;;4983768;28;20457;-72
2023/10/21 10:02:37;;;;;;;1.80;1.70;;;16.00;99.90;;;;;;4960442;28;20486;-72
2023/10/21 10:05:10;;;;;;;2.10;1.80;;;16.10;99.90;;;;;;4966958;28;20468;-73
2023/10/21 10:07:40;;;;;;;2.10;1.70;;;16.10;99.90;;;;;;4966049;28;20450;-73
2023/10/21 10:10:12;;;;;;;1.97;1.87;;;16.10;99.90;;;;;;4990279;28;20610;-73
2023/10/21 10:13:06;;;;;;;2.73;1.77;;;16.10;99.90;;;;;;4977785;28;20442;-73
2023/10/21 10:15:34;;;;;;;2.07;1.97;;;16.10;99.90;;;;;;5002007;28;20507;-72
2023/10/21 10:18:13;;;;;;;2.03;1.93;;;16.10;99.90;;;;;;4980378;28;20424;-73
2023/10/21 10:20:48;;;;;;;1.80;1.70;;;16.10;99.90;;;;;;4975541;28;20482;-72
2023/10/21 10:23:15;;;;;;;2.23;1.70;;;16.10;99.90;;;;;;4954240;28;20618;-73
2023/10/21 10:25:49;;;;;;;2.10;1.67;;;16.10;99.90;;;;;;4982633;28;20537;-73
2023/10/21 10:28:17;;;;;;;1.87;1.77;;;16.10;99.90;;;;;;4991259;28;21014;-72
2023/10/21 10:30:44;;;;;;;2.43;1.90;;;16.20;99.90;;;;;;4995460;28;20500;-72
2023/10/21 10:33:17;;;;;;;1.93;1.83;;;16.20;99.90;;;;;;4985456;28;20522;-72
2023/10/21 10:36:06;;;;;;;1.83;1.73;;;16.20;99.90;;;;;;4986444;28;20443;-72
2023/10/21 10:38:44;;;;;;;2.70;1.90;;;16.20;99.90;;;;;;4994548;28;20477;-73
2023/10/21 10:41:17;;;;;;;2.07;1.97;;;16.20;99.90;;;;;;4959111;28;20589;-72
2023/10/21 10:43:52;;;;;;;2.90;1.70;;;16.20;99.90;;;;;;4985025;28;20510;-72
2023/10/21 10:46:25;;;;;;;2.13;1.93;;;16.20;99.90;;;;;;4978363;28;20440;-72
2023/10/21 10:48:52;;;;;;;2.77;1.77;;;16.20;99.90;;;;;;4983566;28;20834;-72
2023/10/21 10:51:21;;;;;;;1.70;1.60;;;16.20;99.90;;;;;;4966538;28;20427;-72
2023/10/21 10:53:58;;;;;;;1.63;1.53;;;16.20;99.90;;;;;;4977194;28;20461;-72
2023/10/21 10:56:27;;;;;;;2.27;1.80;;;16.20;99.90;;;;;;4999873;28;20450;-72
2023/10/21 10:58:53;;;;;;;1.70;1.60;;;16.20;99.90;;;;;;4975739;28;20497;-72
2023/10/21 11:01:28;;;;;;;2.83;1.63;;;16.30;99.90;;;;;;4993240;28;21262;-72
2023/10/21 11:04:00;;;;;;;1.83;1.70;;;16.30;99.90;;;;;;4979970;28;20464;-72
2023/10/21 11:06:31;;;;;;;1.83;1.73;;;16.30;99.90;;;;;;4966269;28;20447;-72
2023/10/21 11:09:09;;;;;;;1.80;1.70;;;16.30;99.90;;;;;;4970954;28;20883;-73
2023/10/21 11:11:48;;;;;;;2.07;1.97;;;16.30;99.90;;;;;;4956028;28;20550;-72
2023/10/21 11:14:16;;;;;;;1.83;1.70;;;16.30;99.90;;;;;;4971061;28;20551;-72
2023/10/21 11:16:49;;;;;;;2.30;1.63;;;16.30;99.90;;;;;;4959077;28;20437;-73
2023/10/21 11:19:15;;;;;;;1.70;1.60;;;16.30;99.90;;;;;;4976473;28;20527;-72
2023/10/21 11:21:48;;;;;;;1.73;1.60;;;16.30;99.90;;;;;;4936122;28;20461;-72
2023/10/21 11:26:59;;;;;;;1.90;1.80;;;16.30;99.90;;;;;;5078550;28;20472;-73
2023/10/21 11:29:26;;;;;;;2.50;1.87;;;16.40;99.90;;;;;;5056574;28;20451;-72
2023/10/21 11:31:54;;;;;;;2.80;1.77;;;16.40;99.90;;;;;;5040378;28;20473;-73
2023/10/21 11:34:21;;;;;;;1.70;1.60;;;16.40;99.90;;;;;;5040617;28;20861;-73
2023/10/21 11:36:50;;;;;;;4.20;2.13;;;16.40;99.90;;;;;;5057125;28;20778;-71
2023/10/21 11:39:17;;;;;;;2.50;1.97;;;16.40;99.90;;;;;;5056158;28;20973;-72
2023/10/21 11:41:48;;;;;;;1.90;1.70;;;16.40;99.90;;;;;;5039853;28;21508;-72
2023/10/21 11:44:26;;;;;;;3.00;2.10;;;16.40;99.90;;;;;;5058410;28;20454;-72
2023/10/21 11:47:06;;;;;;;2.20;1.90;;;16.50;99.90;;;;;;5058660;28;20471;-72
2023/10/21 11:49:37;;;;;;;1.93;1.80;;;16.40;99.70;;;;;;5057172;28;20597;-73
2023/10/21 11:52:09;;;;;;;3.53;1.83;;;16.50;99.70;;;;;;5057472;28;20436;-72
2023/10/21 11:54:40;;;;;;;2.43;2.00;;;16.50;99.70;;;;;;5039078;28;20463;-72
2023/10/21 12:35:48;;;;;;;2.60;1.93;;;16.50;98.50;;;;;;5054301;28;21098;-72
2023/10/21 12:43:38;;;;;;;3.03;2.30;;;16.50;98.60;;;;;;5030583;28;20592;-72
2023/10/21 12:46:17;;;;;;;5.60;2.03;;;16.50;98.40;;;;;;5034939;28;20467;-73
2023/10/21 12:48:48;;;;;;;2.20;1.70;;;16.60;98.40;;;;;;5042298;28;20967;-72
2023/10/21 12:51:16;;;;;;;3.20;2.07;;;16.60;98.30;;;;;;5020823;28;20432;-73
2023/10/21 12:53:47;;;;;;;3.37;2.10;;;16.60;98.30;;;;;;5038724;28;20455;-72
2023/10/21 12:56:13;;;;;;;3.90;2.20;;;16.60;98.30;;;;;;5037038;28;20434;-72
2023/10/21 12:58:42;;;;;;;7.90;2.00;;;16.60;98.20;;;;;;5040954;28;20482;-73
2023/10/21 13:01:14;;;;;;;2.23;1.97;;;16.60;98.00;;;;;;5043072;28;20435;-73
2023/10/21 13:03:42;;;;;;;5.67;2.50;;;16.60;98.10;;;;;;5024873;28;20482;-73
2023/10/21 13:06:12;;;;;;;4.40;2.30;;;16.60;98.10;;;;;;5040483;28;20467;-73
2023/10/21 13:08:42;;;;;;;3.23;2.30;;;16.60;98.00;;;;;;5023850;28;20465;-73
2023/10/21 13:11:13;;;;;;;3.17;2.40;;;16.60;98.10;;;;;;5040939;28;20618;-73
2023/10/21 13:13:40;;;;;;;3.83;1.90;;;16.60;97.90;;;;;;4999631;28;20460;-72
2023/10/21 13:16:07;;;;;;;5.60;2.40;;;16.60;97.90;;;;;;5020693;28;20521;-74
2023/10/21 13:18:34;;;;;;;4.03;2.20;;;16.60;98.00;;;;;;5024376;28;20444;-72
2023/10/21 13:21:01;;;;;;;5.40;2.60;;;16.60;97.80;;;;;;5024257;28;20451;-73
2023/10/21 13:23:27;;;;;;;3.20;2.40;;;16.60;97.80;;;;;;5006490;28;20452;-73
2023/10/21 13:25:54;;;;;;;5.20;2.30;;;16.60;97.50;;;;;;5014788;28;20499;-73
2023/10/21 13:28:21;;;;;;;3.30;2.43;;;16.60;97.30;;;;;;5041035;28;21070;-73
2023/10/21 13:30:51;;;;;;;2.47;2.00;;;16.60;97.40;;;;;;5040149;28;20753;-72
2023/10/21 13:33:22;;;;;;;4.23;2.03;;;16.60;96.90;;;;;;5041771;28;20447;-72
2023/10/21 13:35:54;;;;;;;3.40;2.50;;;16.70;96.80;;;;;;5040069;28;20856;-73
2023/10/21 13:38:24;;;;;;;2.43;2.10;;;16.60;96.70;;;;;;5041480;28;20519;-72
2023/10/21 13:40:50;;;;;;;2.23;2.00;;;16.70;96.80;;;;;;5033682;28;20448;-72
2023/10/21 13:43:18;;;;;;;7.80;2.50;;;16.60;96.80;;;;;;5039925;28;21000;-72